Time;durP1;ratioP1;P1;durP2;ratioP2;P2;SDS_P1;SDS_P2;PMS_P1;PMS_P2;Temp;Humidity;BMP_temperature;BMP_pressure;BME280_temperature;BME280_humidity;BME280_pressure;Samples;Min_cycle;Max_cycle;Signal;HPM_P1;HPM_P2
2023/07/31 00:00:20;;;;;;;3.80;1.90;;;;;;;;;;5015536;28;20563;-57
2023/07/31 00:02:47;;;;;;;3.23;1.63;;;;;;;;;;5028347;28;20470;-57
2023/07/31 00:05:15;;;;;;;3.23;1.73;;;;;;;;;;5027970;28;20450;-56
2023/07/31 00:07:42;;;;;;;3.00;1.80;;;;;;;;;;5011120;28;20475;-57
2023/07/31 00:10:09;;;;;;;2.50;1.50;;;;;;;;;;5009962;28;20951;-57
2023/07/31 00:12:37;;;;;;;4.17;1.57;;;;;;;;;;5010478;28;20538;-57
2023/07/31 00:15:04;;;;;;;2.77;1.63;;;;;;;;;;5023480;28;20564;-57
2023/07/31 00:17:33;;;;;;;4.57;1.30;;;;;;;;;;5029425;28;20516;-56
2023/07/31 00:20:00;;;;;;;2.97;1.90;;;;;;;;;;5015304;28;21031;-57
2023/07/31 00:22:27;;;;;;;4.23;2.20;;;;;;;;;;5010286;28;20482;-57
2023/07/31 00:24:55;;;;;;;2.97;1.60;;;;;;;;;;5010652;28;20483;-57
2023/07/31 00:27:22;;;;;;;3.10;1.93;;;;;;;;;;5010264;28;20573;-57
2023/07/31 00:29:49;;;;;;;2.87;1.50;;;;;;;;;;5010010;28;20838;-57
2023/07/31 00:32:16;;;;;;;9.83;1.60;;;;;;;;;;5010174;28;20542;-57
2023/07/31 00:34:45;;;;;;;2.50;1.47;;;;;;;;;;5011006;28;20443;-57
2023/07/31 00:37:12;;;;;;;3.40;1.90;;;;;;;;;;5010081;28;20447;-57
2023/07/31 00:39:39;;;;;;;3.57;1.90;;;;;;;;;;5009932;28;20463;-57
2023/07/31 00:42:07;;;;;;;2.17;1.47;;;;;;;;;;5009350;28;21065;-56
2023/07/31 00:44:35;;;;;;;5.77;1.67;;;;;;;;;;5009799;28;20467;-57
2023/07/31 00:47:02;;;;;;;4.10;1.83;;;;;;;;;;5009941;28;20522;-57
2023/07/31 00:49:29;;;;;;;2.70;1.80;;;;;;;;;;5009819;28;20541;-56
2023/07/31 00:51:58;;;;;;;4.00;1.73;;;;;;;;;;5024382;28;20520;-56
2023/07/31 00:54:25;;;;;;;2.60;1.53;;;;;;;;;;5021431;28;20999;-57
2023/07/31 00:56:54;;;;;;;2.30;1.57;;;;;;;;;;5029514;28;20526;-57
2023/07/31 00:59:21;;;;;;;2.93;1.93;;;;;;;;;;5013432;28;20562;-57
2023/07/31 01:01:49;;;;;;;3.90;1.83;;;;;;;;;;5013628;28;20526;-56
2023/07/31 01:04:16;;;;;;;2.90;1.77;;;;;;;;;;5028652;28;20441;-56
2023/07/31 01:06:48;;;;;;;4.03;1.63;;;;;;;;;;5031586;28;20549;-57
2023/07/31 01:09:21;;;;;;;2.40;1.70;;;;;;;;;;5012944;28;20474;-55
2023/07/31 01:11:50;;;;;;;6.00;1.90;;;;;;;;;;5013312;28;20447;-57
2023/07/31 01:14:17;;;;;;;2.90;1.67;;;;;;;;;;5013627;28;20443;-56
2023/07/31 01:16:44;;;;;;;2.40;1.63;;;;;;;;;;5013266;28;20542;-57
2023/07/31 01:19:12;;;;;;;2.47;1.67;;;;;;;;;;5014044;28;20487;-57
2023/07/31 01:21:53;;;;;;;4.37;1.90;;;;;;;;;;5014257;28;20443;-56
2023/07/31 01:24:28;;;;;;;3.50;1.60;;;;;;;;;;5018207;28;20535;-57
2023/07/31 01:26:59;;;;;;;4.43;1.63;;;;;;;;;;5020457;28;21021;-57
2023/07/31 01:29:31;;;;;;;3.03;1.30;;;;;;;;;;5032224;28;20554;-57
2023/07/31 01:31:58;;;;;;;3.40;1.60;;;;;;;;;;5032340;28;20446;-57
2023/07/31 01:34:25;;;;;;;3.93;1.70;;;;;;;;;;5016077;28;20448;-56
2023/07/31 01:36:53;;;;;;;2.50;1.70;;;;;;;;;;5013122;28;20471;-57
2023/07/31 01:39:21;;;;;;;3.07;1.97;;;;;;;;;;5012432;28;20566;-57
2023/07/31 01:41:49;;;;;;;5.07;1.80;;;;;;;;;;5012837;28;21023;-57
2023/07/31 01:44:17;;;;;;;3.17;1.60;;;;;;;;;;5013574;28;20537;-57
2023/07/31 01:46:44;;;;;;;3.83;2.00;;;;;;;;;;5012692;28;20542;-56
2023/07/31 01:49:12;;;;;;;2.40;1.50;;;;;;;;;;5012616;28;20468;-57
2023/07/31 01:51:39;;;;;;;4.03;1.97;;;;;;;;;;5012615;28;21013;-57
2023/07/31 01:54:06;;;;;;;2.70;2.10;;;;;;;;;;5025407;28;20525;-57
2023/07/31 01:56:34;;;;;;;3.13;1.93;;;;;;;;;;5018013;28;20501;-57
2023/07/31 01:59:01;;;;;;;2.70;1.73;;;;;;;;;;5012119;28;20588;-57
2023/07/31 02:01:30;;;;;;;2.83;1.80;;;;;;;;;;5012082;28;20927;-57
2023/07/31 02:03:57;;;;;;;9.60;2.23;;;;;;;;;;5012749;28;20542;-57
2023/07/31 02:06:24;;;;;;;6.73;3.50;;;;;;;;;;5022794;28;20450;-57
2023/07/31 02:08:52;;;;;;;4.10;2.33;;;;;;;;;;5045320;23;20517;-54
2023/07/31 02:11:19;;;;;;;4.53;2.40;;;;;;;;;;5011838;28;20542;-55
2023/07/31 02:13:46;;;;;;;3.30;1.70;;;;;;;;;;5012123;28;20478;-54
2023/07/31 02:16:13;;;;;;;3.00;2.17;;;;;;;;;;5012532;28;20576;-56
2023/07/31 02:18:42;;;;;;;4.70;2.10;;;;;;;;;;5011932;28;20515;-56
2023/07/31 02:21:09;;;;;;;2.97;1.70;;;;;;;;;;5012024;28;20876;-55
2023/07/31 02:23:36;;;;;;;3.20;1.83;;;;;;;;;;5011615;28;20561;-56
2023/07/31 02:26:04;;;;;;;4.33;2.10;;;;;;;;;;5012238;28;20538;-56
2023/07/31 02:28:31;;;;;;;4.40;1.63;;;;;;;;;;5012306;28;20482;-56
2023/07/31 02:30:58;;;;;;;2.50;1.53;;;;;;;;;;5007806;28;20521;-54
2023/07/31 02:33:26;;;;;;;3.03;1.73;;;;;;;;;;5018812;28;20981;-54
2023/07/31 02:35:54;;;;;;;3.73;1.57;;;;;;;;;;4991955;28;20526;-56
2023/07/31 02:38:21;;;;;;;2.50;1.40;;;;;;;;;;4992548;28;21098;-53
2023/07/31 02:40:49;;;;;;;2.90;1.53;;;;;;;;;;4992413;28;20552;-55
2023/07/31 02:43:16;;;;;;;3.57;1.80;;;;;;;;;;4992788;28;20444;-55
2023/07/31 02:45:42;;;;;;;3.40;1.60;;;;;;;;;;4992416;28;20906;-56
2023/07/31 02:48:09;;;;;;;2.77;1.50;;;;;;;;;;4991989;28;20436;-55
2023/07/31 02:50:37;;;;;;;4.10;2.03;;;;;;;;;;4992183;28;20468;-56
2023/07/31 02:53:05;;;;;;;2.97;1.87;;;;;;;;;;4992278;28;20894;-55
2023/07/31 02:55:32;;;;;;;4.90;1.70;;;;;;;;;;4992294;28;20530;-56
2023/07/31 02:58:00;;;;;;;3.30;1.73;;;;;;;;;;5004725;28;20471;-55
2023/07/31 03:00:27;;;;;;;2.70;1.50;;;;;;;;;;4997232;28;20500;-54
2023/07/31 03:02:54;;;;;;;3.80;1.67;;;;;;;;;;5007860;28;20471;-54
2023/07/31 03:05:21;;;;;;;4.50;2.00;;;;;;;;;;4991916;28;21020;-56
2023/07/31 03:07:49;;;;;;;2.93;1.70;;;;;;;;;;5004420;28;20912;-56
2023/07/31 03:10:17;;;;;;;2.60;1.80;;;;;;;;;;5010861;28;20503;-55
2023/07/31 03:12:48;;;;;;;3.13;1.93;;;;;;;;;;5011249;28;20521;-54
2023/07/31 03:15:15;;;;;;;2.97;1.73;;;;;;;;;;5011598;28;20932;-54
2023/07/31 03:17:42;;;;;;;2.80;1.77;;;;;;;;;;5011860;28;20530;-56
2023/07/31 03:20:10;;;;;;;5.50;2.07;;;;;;;;;;5009495;28;20514;-54
2023/07/31 03:22:37;;;;;;;5.50;1.80;;;;;;;;;;5007948;28;20527;-54
2023/07/31 03:25:05;;;;;;;3.67;1.90;;;;;;;;;;4999869;28;20448;-56
2023/07/31 03:27:34;;;;;;;2.80;1.83;;;;;;;;;;4998584;28;20525;-55
2023/07/31 03:30:01;;;;;;;2.63;1.90;;;;;;;;;;4997061;28;21064;-55
2023/07/31 03:32:28;;;;;;;5.63;2.00;;;;;;;;;;4991560;28;20495;-54
2023/07/31 03:34:56;;;;;;;2.70;2.20;;;;;;;;;;4991904;28;20531;-55
2023/07/31 03:37:23;;;;;;;2.77;1.80;;;;;;;;;;4992731;28;20956;-55
2023/07/31 03:39:50;;;;;;;2.20;1.47;;;;;;;;;;5003488;28;20554;-56
2023/07/31 03:42:17;;;;;;;3.63;2.40;;;;;;;;;;5011437;28;20535;-55
2023/07/31 03:44:46;;;;;;;3.47;2.10;;;;;;;;;;5010207;28;20565;-55
2023/07/31 03:47:13;;;;;;;4.27;2.00;;;;;;;;;;5011370;28;20513;-55
2023/07/31 03:49:40;;;;;;;2.90;1.63;;;;;;;;;;5010507;28;20455;-55
2023/07/31 03:52:08;;;;;;;2.63;1.90;;;;;;;;;;5008907;28;20475;-55
2023/07/31 03:54:35;;;;;;;3.63;1.83;;;;;;;;;;5010372;28;20539;-55
2023/07/31 03:57:02;;;;;;;3.30;1.60;;;;;;;;;;5011214;28;20521;-54
2023/07/31 03:59:29;;;;;;;4.90;1.90;;;;;;;;;;5009215;28;20572;-55
2023/07/31 04:01:58;;;;;;;3.17;1.93;;;;;;;;;;4993368;28;20527;-55
2023/07/31 04:04:25;;;;;;;2.50;1.50;;;;;;;;;;4989241;28;20440;-56
2023/07/31 04:06:53;;;;;;;3.00;2.17;;;;;;;;;;4990057;28;20439;-55
2023/07/31 04:09:20;;;;;;;3.73;2.00;;;;;;;;;;4989560;28;20550;-54
2023/07/31 04:11:47;;;;;;;3.00;2.10;;;;;;;;;;4989621;28;21035;-55
2023/07/31 04:14:14;;;;;;;2.93;1.87;;;;;;;;;;4989361;28;20527;-56
2023/07/31 04:16:41;;;;;;;2.20;1.60;;;;;;;;;;4989987;28;20921;-54
2023/07/31 04:19:11;;;;;;;8.23;2.20;;;;;;;;;;4991170;28;20562;-55
2023/07/31 04:21:38;;;;;;;3.03;1.70;;;;;;;;;;4991116;28;20446;-55
2023/07/31 04:24:05;;;;;;;5.67;2.30;;;;;;;;;;4991094;28;20611;-55
2023/07/31 04:26:32;;;;;;;3.50;2.10;;;;;;;;;;4993945;28;20472;-56
2023/07/31 04:29:00;;;;;;;2.40;1.50;;;;;;;;;;4994919;28;20514;-54
2023/07/31 04:31:27;;;;;;;6.60;2.07;;;;;;;;;;4994842;28;20528;-55
2023/07/31 04:33:54;;;;;;;3.40;2.30;;;;;;;;;;4995323;28;20522;-54
2023/07/31 04:36:23;;;;;;;5.23;2.50;;;;;;;;;;4994898;28;20527;-56
2023/07/31 04:38:50;;;;;;;2.80;1.97;;;;;;;;;;4994705;28;20581;-56
2023/07/31 04:41:17;;;;;;;3.63;1.97;;;;;;;;;;4994508;28;20502;-55
2023/07/31 04:43:44;;;;;;;4.80;2.10;;;;;;;;;;4995051;28;20464;-56
2023/07/31 04:46:11;;;;;;;2.43;1.80;;;;;;;;;;4993991;28;20826;-55
2023/07/31 04:48:39;;;;;;;3.10;2.00;;;;;;;;;;4993053;28;20443;-55
2023/07/31 04:51:06;;;;;;;3.53;2.00;;;;;;;;;;4995523;28;20475;-55
2023/07/31 04:53:35;;;;;;;3.93;2.30;;;;;;;;;;4993087;28;20522;-54
2023/07/31 04:56:02;;;;;;;3.30;2.17;;;;;;;;;;4993285;28;20479;-56
2023/07/31 04:58:29;;;;;;;2.50;1.90;;;;;;;;;;4993063;28;20530;-55
2023/07/31 05:00:56;;;;;;;5.03;2.10;;;;;;;;;;4996736;28;20431;-54
2023/07/31 05:03:24;;;;;;;4.63;2.63;;;;;;;;;;5003895;28;20523;-54
2023/07/31 05:05:51;;;;;;;3.67;2.47;;;;;;;;;;5001897;28;20527;-54
2023/07/31 05:08:18;;;;;;;4.60;2.63;;;;;;;;;;5012511;28;20849;-54
2023/07/31 05:10:47;;;;;;;4.07;2.67;;;;;;;;;;5009663;28;20463;-54
2023/07/31 05:13:14;;;;;;;3.17;1.90;;;;;;;;;;5004442;28;20519;-54
2023/07/31 05:15:42;;;;;;;4.07;2.60;;;;;;;;;;5010540;28;20518;-55
2023/07/31 05:18:09;;;;;;;3.30;2.00;;;;;;;;;;5013190;28;20535;-56
2023/07/31 05:20:37;;;;;;;3.17;2.50;;;;;;;;;;5004058;28;20601;-56
2023/07/31 05:23:04;;;;;;;3.50;2.50;;;;;;;;;;5003840;28;20440;-55
2023/07/31 05:25:31;;;;;;;8.47;2.60;;;;;;;;;;5002244;28;20969;-55
2023/07/31 05:28:00;;;;;;;3.63;2.50;;;;;;;;;;5003227;28;20531;-55
2023/07/31 05:30:27;;;;;;;3.67;2.60;;;;;;;;;;5001976;28;20617;-54
2023/07/31 05:32:54;;;;;;;6.40;2.57;;;;;;;;;;4994382;28;20440;-56
2023/07/31 05:35:22;;;;;;;5.00;2.40;;;;;;;;;;4992420;28;20467;-55
2023/07/31 05:37:49;;;;;;;3.13;2.47;;;;;;;;;;4991826;28;20444;-55
2023/07/31 05:40:16;;;;;;;4.20;2.20;;;;;;;;;;4992017;28;20483;-53
2023/07/31 05:42:43;;;;;;;6.40;2.27;;;;;;;;;;4992292;28;20524;-54
2023/07/31 05:45:13;;;;;;;4.93;2.60;;;;;;;;;;4993957;28;20445;-54
2023/07/31 05:47:40;;;;;;;7.27;2.87;;;;;;;;;;5002680;28;20858;-54
2023/07/31 05:50:08;;;;;;;3.77;2.17;;;;;;;;;;4999882;28;20460;-54
2023/07/31 05:52:35;;;;;;;5.20;2.10;;;;;;;;;;5011636;28;20534;-54
2023/07/31 05:55:02;;;;;;;5.57;2.40;;;;;;;;;;5002959;28;20518;-55
2023/07/31 05:57:30;;;;;;;3.43;2.57;;;;;;;;;;5010608;28;20533;-54
2023/07/31 05:59:57;;;;;;;4.30;2.70;;;;;;;;;;5010271;28;20529;-53
2023/07/31 06:02:26;;;;;;;4.77;3.10;;;;;;;;;;5008431;28;20518;-54
2023/07/31 06:04:53;;;;;;;4.20;2.23;;;;;;;;;;5011611;28;20439;-55
2023/07/31 06:07:20;;;;;;;3.50;2.27;;;;;;;;;;5011949;28;20439;-56
2023/07/31 06:09:49;;;;;;;4.20;2.87;;;;;;;;;;5012037;28;20470;-54
2023/07/31 06:12:18;;;;;;;5.13;2.90;;;;;;;;;;5011365;28;20501;-54
2023/07/31 06:14:45;;;;;;;2.90;2.50;;;;;;;;;;5011363;28;20447;-55
2023/07/31 06:17:13;;;;;;;5.53;3.00;;;;;;;;;;5009938;28;20506;-55
2023/07/31 06:19:41;;;;;;;3.87;2.30;;;;;;;;;;5010451;28;20577;-56
2023/07/31 06:22:08;;;;;;;7.93;2.90;;;;;;;;;;5011691;28;20498;-55
2023/07/31 06:24:36;;;;;;;4.20;2.43;;;;;;;;;;5012131;28;21007;-55
2023/07/31 06:27:03;;;;;;;4.30;2.83;;;;;;;;;;5011666;28;20501;-56
2023/07/31 06:29:31;;;;;;;4.20;2.90;;;;;;;;;;5011994;28;20493;-56
2023/07/31 06:31:58;;;;;;;3.80;2.10;;;;;;;;;;5012632;28;20525;-56
2023/07/31 06:34:25;;;;;;;3.63;2.27;;;;;;;;;;5012288;28;20471;-56
2023/07/31 06:36:54;;;;;;;6.70;3.10;;;;;;;;;;5011930;28;20439;-54
2023/07/31 06:39:21;;;;;;;5.73;2.83;;;;;;;;;;5010528;28;20510;-56
2023/07/31 06:41:48;;;;;;;3.07;2.20;;;;;;;;;;5011161;28;20462;-56
2023/07/31 06:44:16;;;;;;;4.97;2.30;;;;;;;;;;5010635;28;20451;-55
2023/07/31 06:46:43;;;;;;;3.20;2.30;;;;;;;;;;5010842;28;20474;-55
2023/07/31 06:49:11;;;;;;;3.20;2.03;;;;;;;;;;5009340;28;20542;-56
2023/07/31 06:51:38;;;;;;;3.00;2.10;;;;;;;;;;5010170;28;20467;-55
2023/07/31 06:54:07;;;;;;;3.30;2.30;;;;;;;;;;5007177;28;20451;-56
2023/07/31 06:56:34;;;;;;;3.63;2.37;;;;;;;;;;5008571;28;20546;-56
2023/07/31 06:59:01;;;;;;;6.30;2.23;;;;;;;;;;5011756;28;20546;-55
2023/07/31 07:01:28;;;;;;;4.77;2.17;;;;;;;;;;5010157;28;20475;-55
2023/07/31 07:03:56;;;;;;;3.80;2.30;;;;;;;;;;5011088;28;20505;-55
2023/07/31 07:06:23;;;;;;;4.77;2.77;;;;;;;;;;5004511;28;20450;-55
2023/07/31 07:08:51;;;;;;;3.80;2.20;;;;;;;;;;5011636;28;20483;-56
2023/07/31 07:11:19;;;;;;;4.97;2.50;;;;;;;;;;5011378;28;20525;-55
2023/07/31 07:13:46;;;;;;;4.30;2.70;;;;;;;;;;5011602;28;20495;-56
2023/07/31 07:16:14;;;;;;;3.27;2.30;;;;;;;;;;5010986;28;20537;-55
2023/07/31 07:18:41;;;;;;;3.50;2.80;;;;;;;;;;5011321;28;20935;-55
2023/07/31 07:21:08;;;;;;;3.23;2.60;;;;;;;;;;5011196;28;20504;-56
2023/07/31 07:23:35;;;;;;;4.70;3.03;;;;;;;;;;5011357;28;20522;-55
2023/07/31 07:26:03;;;;;;;2.70;2.17;;;;;;;;;;5011445;28;20931;-55
2023/07/31 07:28:31;;;;;;;3.70;2.77;;;;;;;;;;5011459;28;20443;-56
2023/07/31 07:30:59;;;;;;;3.67;2.57;;;;;;;;;;5011170;28;21021;-56
2023/07/31 07:33:26;;;;;;;5.07;2.80;;;;;;;;;;5011434;28;20524;-54
2023/07/31 07:35:53;;;;;;;4.07;3.20;;;;;;;;;;5015672;28;20469;-54
2023/07/31 07:38:20;;;;;;;3.40;2.60;;;;;;;;;;5031156;28;20521;-55
2023/07/31 07:40:50;;;;;;;5.33;2.80;;;;;;;;;;5030680;28;20569;-55
2023/07/31 07:43:17;;;;;;;4.87;2.97;;;;;;;;;;5031045;28;20556;-54
2023/07/31 07:45:46;;;;;;;4.10;2.63;;;;;;;;;;5031056;28;20565;-54
2023/07/31 07:48:13;;;;;;;4.30;2.60;;;;;;;;;;5030993;28;20529;-55
2023/07/31 07:50:40;;;;;;;4.13;2.80;;;;;;;;;;5030152;28;20505;-56
2023/07/31 07:53:07;;;;;;;3.90;2.93;;;;;;;;;;5030743;28;20533;-54
2023/07/31 07:55:35;;;;;;;2.90;2.43;;;;;;;;;;5030991;28;20442;-55
2023/07/31 07:58:02;;;;;;;3.47;2.70;;;;;;;;;;5030613;28;20525;-54
2023/07/31 08:00:29;;;;;;;3.43;2.77;;;;;;;;;;5029650;28;20859;-55
2023/07/31 08:02:58;;;;;;;3.63;2.63;;;;;;;;;;5030724;28;20522;-54
2023/07/31 08:05:25;;;;;;;4.70;3.10;;;;;;;;;;5029308;28;20442;-55
2023/07/31 08:07:52;;;;;;;4.27;3.23;;;;;;;;;;5028412;28;20434;-55
2023/07/31 08:10:20;;;;;;;3.60;3.30;;;;;;;;;;5075781;23;20641;-57
2023/07/31 08:12:47;;;;;;;3.67;3.20;;;;;;;;;;5028661;28;20918;-57
2023/07/31 08:15:14;;;;;;;5.40;2.93;;;;;;;;;;5028684;28;20481;-56
2023/07/31 08:17:41;;;;;;;5.40;3.50;;;;;;;;;;5028287;28;20525;-56
2023/07/31 08:20:11;;;;;;;4.07;2.97;;;;;;;;;;5028258;28;20517;-57
2023/07/31 08:22:38;;;;;;;3.43;2.90;;;;;;;;;;5030519;28;20529;-57
2023/07/31 08:25:06;;;;;;;4.57;3.30;;;;;;;;;;5030215;28;20969;-56
2023/07/31 08:27:34;;;;;;;4.53;3.00;;;;;;;;;;5030485;28;20822;-56
2023/07/31 08:30:01;;;;;;;4.23;3.13;;;;;;;;;;5029923;28;20544;-57
2023/07/31 08:32:28;;;;;;;5.53;3.13;;;;;;;;;;5030236;28;20525;-56
2023/07/31 08:34:55;;;;;;;4.70;3.17;;;;;;;;;;5030131;28;20530;-57
2023/07/31 08:37:24;;;;;;;5.27;3.17;;;;;;;;;;5030442;28;20446;-57
2023/07/31 08:39:51;;;;;;;3.50;2.87;;;;;;;;;;5029799;28;20512;-57
2023/07/31 08:42:18;;;;;;;4.13;2.80;;;;;;;;;;5030001;28;20434;-57
2023/07/31 08:44:46;;;;;;;3.70;3.10;;;;;;;;;;5029667;28;20981;-56
2023/07/31 08:47:13;;;;;;;4.20;2.60;;;;;;;;;;5029936;28;20516;-56
2023/07/31 08:49:41;;;;;;;4.93;2.73;;;;;;;;;;5029962;28;20454;-57
2023/07/31 08:52:08;;;;;;;3.87;3.13;;;;;;;;;;5030252;28;20522;-57
2023/07/31 08:54:37;;;;;;;3.70;3.13;;;;;;;;;;5030038;28;20434;-57
2023/07/31 08:57:05;;;;;;;3.00;2.10;;;;;;;;;;5029885;28;20442;-57
2023/07/31 08:59:33;;;;;;;4.50;3.20;;;;;;;;;;5029629;28;20532;-57
2023/07/31 09:02:04;;;;;;;3.97;2.60;;;;;;;;;;5029258;28;20473;-56
2023/07/31 09:04:32;;;;;;;4.73;2.70;;;;;;;;;;5029936;28;20446;-57
2023/07/31 09:07:04;;;;;;;3.70;2.90;;;;;;;;;;5028846;28;20477;-56
2023/07/31 09:09:31;;;;;;;4.63;2.83;;;;;;;;;;5029298;28;20480;-57
2023/07/31 09:12:00;;;;;;;4.10;3.63;;;;;;;;;;5031288;28;20858;-58
2023/07/31 09:14:28;;;;;;;4.30;3.17;;;;;;;;;;5033453;28;20470;-57
2023/07/31 09:16:56;;;;;;;3.00;2.53;;;;;;;;;;5033017;28;20529;-57
2023/07/31 09:19:27;;;;;;;4.87;2.73;;;;;;;;;;5032568;28;21001;-57
2023/07/31 09:21:54;;;;;;;3.80;2.90;;;;;;;;;;5033217;28;20488;-57
2023/07/31 09:24:27;;;;;;;4.37;3.20;;;;;;;;;;5033214;28;20473;-57
2023/07/31 09:26:56;;;;;;;3.97;3.13;;;;;;;;;;5033178;28;20438;-56
2023/07/31 09:29:24;;;;;;;3.20;2.40;;;;;;;;;;5033478;28;20465;-57
2023/07/31 09:31:52;;;;;;;4.27;3.87;;;;;;;;;;5033025;28;20465;-57
2023/07/31 09:34:19;;;;;;;3.70;2.67;;;;;;;;;;5033451;28;20873;-57
2023/07/31 09:36:47;;;;;;;3.57;2.70;;;;;;;;;;5032973;28;20861;-57
2023/07/31 09:39:15;;;;;;;3.77;3.03;;;;;;;;;;5032766;28;20547;-58
2023/07/31 09:41:44;;;;;;;3.63;3.00;;;;;;;;;;5032963;28;20851;-56
2023/07/31 09:44:11;;;;;;;3.20;2.50;;;;;;;;;;5032969;28;20449;-57
2023/07/31 09:46:40;;;;;;;4.97;3.03;;;;;;;;;;5032851;28;20537;-58
2023/07/31 09:49:09;;;;;;;3.40;2.40;;;;;;;;;;5032700;28;20466;-57
2023/07/31 09:51:38;;;;;;;3.53;2.53;;;;;;;;;;5032898;28;20841;-57
2023/07/31 09:54:15;;;;;;;4.10;2.43;;;;;;;;;;5032753;28;20446;-57
2023/07/31 09:56:44;;;;;;;3.87;3.00;;;;;;;;;;5032857;28;20503;-57
2023/07/31 09:59:13;;;;;;;4.37;3.00;;;;;;;;;;5032593;28;20551;-56
2023/07/31 10:01:42;;;;;;;3.17;2.40;;;;;;;;;;5031833;28;20482;-57
2023/07/31 10:04:10;;;;;;;4.30;2.43;;;;;;;;;;5032604;28;20470;-57
2023/07/31 10:06:38;;;;;;;3.57;2.80;;;;;;;;;;5031576;28;20478;-57
2023/07/31 10:09:07;;;;;;;5.13;2.90;;;;;;;;;;5032244;28;20983;-57
2023/07/31 10:11:35;;;;;;;3.47;2.90;;;;;;;;;;5031202;28;20438;-58
2023/07/31 10:14:03;;;;;;;3.20;2.63;;;;;;;;;;5032857;28;20513;-59
2023/07/31 10:16:31;;;;;;;2.97;2.40;;;;;;;;;;5032180;28;20532;-57
2023/07/31 10:19:00;;;;;;;3.53;2.30;;;;;;;;;;5032162;28;20529;-58
2023/07/31 10:21:28;;;;;;;4.80;2.90;;;;;;;;;;5032011;28;20561;-57
2023/07/31 10:23:56;;;;;;;3.47;3.00;;;;;;;;;;5030984;28;21067;-58
2023/07/31 10:26:25;;;;;;;5.57;3.20;;;;;;;;;;5026623;28;20526;-57
2023/07/31 10:28:53;;;;;;;3.63;2.67;;;;;;;;;;5022633;28;20947;-58
2023/07/31 10:31:21;;;;;;;3.87;2.93;;;;;;;;;;5021629;28;20463;-58
2023/07/31 10:33:48;;;;;;;3.20;2.60;;;;;;;;;;5021221;28;20481;-58
2023/07/31 10:36:18;;;;;;;3.97;2.50;;;;;;;;;;5020452;28;20465;-58
2023/07/31 10:38:45;;;;;;;4.10;2.70;;;;;;;;;;5020852;28;20861;-57
2023/07/31 10:41:13;;;;;;;3.53;2.43;;;;;;;;;;5022487;28;21064;-57
2023/07/31 10:43:40;;;;;;;2.67;2.13;;;;;;;;;;5022478;28;21006;-57
2023/07/31 10:46:10;;;;;;;3.57;2.63;;;;;;;;;;5021790;28;20896;-57
2023/07/31 10:48:40;;;;;;;4.33;2.37;;;;;;;;;;5020518;28;20534;-56
2023/07/31 10:51:09;;;;;;;3.70;2.63;;;;;;;;;;5021384;28;20455;-58
2023/07/31 10:53:39;;;;;;;3.47;2.70;;;;;;;;;;5030636;28;20924;-57
2023/07/31 10:56:07;;;;;;;3.37;2.20;;;;;;;;;;5031182;28;20504;-57
2023/07/31 10:58:35;;;;;;;4.10;2.90;;;;;;;;;;5031155;28;20525;-58
2023/07/31 11:01:03;;;;;;;3.50;2.63;;;;;;;;;;5029175;28;20585;-57
2023/07/31 11:03:43;;;;;;;4.00;2.50;;;;;;;;;;5029493;28;20819;-58
2023/07/31 11:06:10;;;;;;;2.80;2.27;;;;;;;;;;5029882;28;20533;-58
2023/07/31 11:08:44;;;;;;;3.13;2.20;;;;;;;;;;5029198;28;20469;-57
2023/07/31 11:11:12;;;;;;;6.70;3.00;;;;;;;;;;5030730;28;20457;-58
2023/07/31 11:13:43;;;;;;;3.70;2.67;;;;;;;;;;5030465;28;20469;-57
2023/07/31 11:16:10;;;;;;;3.97;2.50;;;;;;;;;;5029655;28;20478;-58
2023/07/31 11:18:40;;;;;;;4.50;2.70;;;;;;;;;;5028251;28;20462;-57
2023/07/31 11:21:07;;;;;;;3.80;3.40;;;;;;;;;;5029262;28;21081;-58
2023/07/31 11:23:34;;;;;;;3.50;3.10;;;;;;;;;;5029812;28;20738;-57
2023/07/31 11:26:03;;;;;;;4.13;2.60;;;;;;;;;;5030768;28;20518;-57
2023/07/31 11:28:34;;;;;;;3.70;3.00;;;;;;;;;;5030590;28;20525;-58
2023/07/31 11:31:02;;;;;;;3.63;2.70;;;;;;;;;;5030588;28;20465;-57
2023/07/31 11:33:29;;;;;;;7.20;3.40;;;;;;;;;;5029910;28;20560;-58
2023/07/31 11:35:56;;;;;;;5.30;2.67;;;;;;;;;;5030004;28;20447;-58
2023/07/31 11:38:24;;;;;;;3.50;2.97;;;;;;;;;;5030843;28;20970;-58
2023/07/31 11:40:52;;;;;;;4.30;3.00;;;;;;;;;;5030770;28;20541;-58
2023/07/31 11:43:21;;;;;;;4.27;3.20;;;;;;;;;;5030981;28;20466;-58
2023/07/31 11:45:49;;;;;;;3.47;3.17;;;;;;;;;;5029362;28;20465;-58
2023/07/31 11:48:23;;;;;;;5.50;3.27;;;;;;;;;;5030602;28;20496;-58
2023/07/31 11:50:52;;;;;;;4.33;3.30;;;;;;;;;;5028439;28;20496;-58
2023/07/31 11:53:20;;;;;;;3.90;3.20;;;;;;;;;;5030388;28;20434;-58
2023/07/31 11:55:48;;;;;;;5.00;3.37;;;;;;;;;;5029902;28;20445;-59
2023/07/31 11:58:17;;;;;;;3.83;2.97;;;;;;;;;;5030719;28;20434;-58
2023/07/31 12:00:46;;;;;;;4.20;3.30;;;;;;;;;;5030098;28;20554;-58
2023/07/31 12:03:13;;;;;;;3.60;3.27;;;;;;;;;;5030474;28;20438;-58
2023/07/31 12:05:40;;;;;;;4.37;2.87;;;;;;;;;;5029174;28;20573;-58
2023/07/31 12:08:11;;;;;;;4.13;2.47;;;;;;;;;;5025900;28;20588;-59
2023/07/31 12:10:40;;;;;;;4.90;3.10;;;;;;;;;;5028279;28;21002;-58
2023/07/31 12:13:10;;;;;;;4.10;2.87;;;;;;;;;;5028673;28;20438;-58
2023/07/31 12:15:38;;;;;;;3.10;2.37;;;;;;;;;;5022248;28;20457;-59
2023/07/31 12:18:08;;;;;;;3.80;2.83;;;;;;;;;;5020454;28;20454;-58
2023/07/31 12:20:35;;;;;;;5.37;3.10;;;;;;;;;;5028564;28;20516;-59
2023/07/31 12:23:03;;;;;;;3.70;2.90;;;;;;;;;;5030187;28;20474;-58
2023/07/31 12:25:30;;;;;;;4.57;3.00;;;;;;;;;;5030147;28;20710;-58
2023/07/31 12:27:58;;;;;;;4.60;3.27;;;;;;;;;;5024593;28;20907;-58
2023/07/31 12:30:29;;;;;;;3.70;2.67;;;;;;;;;;5029438;28;20462;-58
2023/07/31 12:32:56;;;;;;;4.27;2.80;;;;;;;;;;5030062;28;20439;-58
2023/07/31 12:35:25;;;;;;;4.40;2.60;;;;;;;;;;5030065;28;21026;-58
2023/07/31 12:37:52;;;;;;;3.87;2.87;;;;;;;;;;5029760;28;20434;-58
2023/07/31 12:40:19;;;;;;;3.67;2.53;;;;;;;;;;5029710;28;20520;-58
2023/07/31 12:42:47;;;;;;;3.77;2.80;;;;;;;;;;5030468;28;20514;-58
2023/07/31 12:45:14;;;;;;;3.87;2.93;;;;;;;;;;5030487;28;20466;-58
2023/07/31 12:47:41;;;;;;;3.83;2.60;;;;;;;;;;5032049;28;20775;-58
2023/07/31 12:50:09;;;;;;;3.60;2.50;;;;;;;;;;5033063;28;20462;-57
2023/07/31 12:52:37;;;;;;;5.40;2.93;;;;;;;;;;5032802;28;20939;-58
2023/07/31 12:55:05;;;;;;;3.60;2.93;;;;;;;;;;5033818;28;20580;-58
2023/07/31 12:57:32;;;;;;;3.63;2.57;;;;;;;;;;5033417;28;20922;-58
2023/07/31 13:00:00;;;;;;;3.97;3.00;;;;;;;;;;5013415;28;20983;-58
2023/07/31 13:02:27;;;;;;;3.70;2.77;;;;;;;;;;5013551;28;20565;-59
2023/07/31 13:04:56;;;;;;;2.90;2.27;;;;;;;;;;5032734;28;20438;-59
2023/07/31 13:07:23;;;;;;;4.33;2.80;;;;;;;;;;5032599;28;20885;-58
2023/07/31 13:09:52;;;;;;;5.93;2.57;;;;;;;;;;5032681;28;20932;-58
2023/07/31 13:12:19;;;;;;;4.40;2.80;;;;;;;;;;5028921;28;20500;-59
2023/07/31 13:14:46;;;;;;;4.20;3.00;;;;;;;;;;5033256;28;20529;-58
2023/07/31 13:17:14;;;;;;;4.03;2.80;;;;;;;;;;5030868;28;20473;-58
2023/07/31 13:19:41;;;;;;;3.93;2.70;;;;;;;;;;5020522;28;20537;-58
2023/07/31 13:22:09;;;;;;;4.30;2.63;;;;;;;;;;5014836;28;20474;-57
2023/07/31 13:24:37;;;;;;;4.20;2.90;;;;;;;;;;5019973;28;20443;-58
2023/07/31 13:27:05;;;;;;;3.00;2.57;;;;;;;;;;5026349;28;20521;-58
2023/07/31 13:29:33;;;;;;;4.30;2.90;;;;;;;;;;5021857;28;20554;-58
2023/07/31 13:32:00;;;;;;;3.60;2.60;;;;;;;;;;5031392;28;20443;-58
2023/07/31 13:34:27;;;;;;;3.00;2.33;;;;;;;;;;5033289;28;20446;-58
2023/07/31 13:36:56;;;;;;;3.60;2.50;;;;;;;;;;5032530;28;20449;-58
2023/07/31 13:39:23;;;;;;;4.00;2.80;;;;;;;;;;5032781;28;20549;-58
2023/07/31 13:41:50;;;;;;;3.77;2.90;;;;;;;;;;5033346;28;20557;-58
2023/07/31 13:44:19;;;;;;;4.23;2.30;;;;;;;;;;5032911;28;20441;-57
2023/07/31 13:46:46;;;;;;;4.30;2.93;;;;;;;;;;5033080;28;20525;-58
2023/07/31 13:49:13;;;;;;;3.50;2.80;;;;;;;;;;5032996;28;20498;-58
2023/07/31 13:51:41;;;;;;;5.13;3.00;;;;;;;;;;5032776;28;20549;-58
2023/07/31 13:54:08;;;;;;;3.53;2.80;;;;;;;;;;5032931;28;20494;-59
2023/07/31 13:56:35;;;;;;;3.90;2.57;;;;;;;;;;5032824;28;20438;-58
2023/07/31 13:59:02;;;;;;;4.13;3.00;;;;;;;;;;5032201;28;20660;-58
2023/07/31 14:01:31;;;;;;;3.40;2.90;;;;;;;;;;5032673;28;20434;-58
2023/07/31 14:03:58;;;;;;;3.43;2.60;;;;;;;;;;5032432;28;20992;-58
2023/07/31 14:06:26;;;;;;;4.00;2.90;;;;;;;;;;5032012;28;20438;-59
2023/07/31 14:08:53;;;;;;;3.53;2.70;;;;;;;;;;5032525;28;20529;-58
2023/07/31 14:11:20;;;;;;;3.60;2.43;;;;;;;;;;5042837;23;20586;-87
2023/07/31 14:13:48;;;;;;;4.10;3.20;;;;;;;;;;5014481;28;20509;-88
2023/07/31 14:16:15;;;;;;;4.00;2.87;;;;;;;;;;5015254;28;20431;-87
2023/07/31 14:18:45;;;;;;;3.70;2.87;;;;;;;;;;5023825;28;20494;-87
2023/07/31 14:21:12;;;;;;;4.10;2.93;;;;;;;;;;5015495;28;20443;-87
2023/07/31 14:23:39;;;;;;;4.07;2.57;;;;;;;;;;5015268;28;20549;-88
2023/07/31 14:26:07;;;;;;;4.20;3.03;;;;;;;;;;5043931;23;20854;-57
2023/07/31 14:28:34;;;;;;;5.07;3.10;;;;;;;;;;5032206;28;20473;-56
2023/07/31 14:31:01;;;;;;;4.80;2.90;;;;;;;;;;5031863;28;20541;-57
2023/07/31 14:33:29;;;;;;;4.80;3.60;;;;;;;;;;5032351;28;20516;-55
2023/07/31 14:35:57;;;;;;;5.03;3.57;;;;;;;;;;5020451;28;20878;-57
2023/07/31 14:38:24;;;;;;;4.00;2.70;;;;;;;;;;5012343;28;20447;-57
2023/07/31 14:40:52;;;;;;;3.60;3.07;;;;;;;;;;5012279;28;20827;-56
2023/07/31 14:43:19;;;;;;;4.00;3.57;;;;;;;;;;5012375;28;20847;-57
2023/07/31 14:45:47;;;;;;;4.30;3.47;;;;;;;;;;5012191;28;20526;-57